Time;durP1;ratioP1;P1;durP2;ratioP2;P2;SDS_P1;SDS_P2;PMS_P1;PMS_P2;Temp;Humidity;BMP_temperature;BMP_pressure;BME280_temperature;BME280_humidity;BME280_pressure;Samples;Min_cycle;Max_cycle;Signal;HPM_P1;HPM_P2
2022/12/01 00:00:19;;;;;;;47.15;24.75;;;5.90;99.90;;;;;;5033635;28;20032;-71
2022/12/01 00:02:45;;;;;;;51.08;26.88;;;5.90;99.90;;;;;;5051773;28;20051;-71
2022/12/01 00:05:10;;;;;;;50.40;26.73;;;5.90;99.90;;;;;;5024760;28;20040;-70
2022/12/01 00:07:36;;;;;;;35.70;20.02;;;5.90;99.90;;;;;;5070711;28;20071;-71
2022/12/01 00:12:46;;;;;;;36.35;18.83;;;5.90;99.90;;;;;;5070392;28;20629;-71
2022/12/01 00:15:12;;;;;;;30.17;16.85;;;5.90;99.90;;;;;;5052977;28;20036;-71
2022/12/01 00:17:37;;;;;;;27.42;15.98;;;5.90;99.90;;;;;;5050149;28;20113;-71
2022/12/01 00:20:05;;;;;;;38.33;20.85;;;5.90;99.90;;;;;;5053672;28;20044;-71
2022/12/01 00:22:30;;;;;;;30.45;16.30;;;5.90;99.90;;;;;;5044027;28;20084;-71
2022/12/01 00:24:56;;;;;;;28.13;15.43;;;5.90;99.90;;;;;;5033833;28;20079;-71
2022/12/01 00:27:22;;;;;;;27.63;15.82;;;5.90;99.90;;;;;;5055978;28;20048;-71
2022/12/01 00:29:47;;;;;;;31.85;17.42;;;5.90;99.90;;;;;;5048965;28;20044;-71
2022/12/01 00:32:13;;;;;;;25.92;15.13;;;5.90;99.90;;;;;;5052891;28;20056;-71
2022/12/01 00:34:39;;;;;;;25.13;13.43;;;5.90;99.90;;;;;;5062255;28;20404;-71
2022/12/01 00:37:05;;;;;;;27.50;14.77;;;5.90;99.90;;;;;;5050575;28;20041;-70
2022/12/01 00:39:31;;;;;;;30.98;16.45;;;5.90;99.90;;;;;;5036615;28;20345;-70
2022/12/01 00:41:56;;;;;;;27.95;15.23;;;5.90;99.90;;;;;;5049389;28;20083;-70
2022/12/01 00:44:22;;;;;;;19.15;11.60;;;5.90;99.90;;;;;;5035167;28;20839;-71
2022/12/01 00:46:48;;;;;;;38.53;19.33;;;5.90;99.90;;;;;;5054215;28;20112;-71
2022/12/01 00:49:14;;;;;;;38.78;20.08;;;5.90;99.90;;;;;;5055787;28;20087;-71
2022/12/01 00:51:40;;;;;;;30.65;16.80;;;5.90;99.90;;;;;;5062399;28;20037;-71
2022/12/01 00:54:05;;;;;;;32.28;17.08;;;5.90;99.90;;;;;;5034891;28;20052;-71
2022/12/01 00:56:31;;;;;;;30.92;16.65;;;5.90;99.90;;;;;;5051040;28;20048;-71
2022/12/01 00:58:57;;;;;;;40.55;21.33;;;5.90;99.90;;;;;;5052555;28;20115;-70
2022/12/01 01:01:22;;;;;;;32.05;17.02;;;5.90;99.90;;;;;;5052079;28;20037;-70
2022/12/01 01:03:48;;;;;;;36.40;19.65;;;5.90;99.90;;;;;;5055694;28;20125;-70
2022/12/01 01:06:14;;;;;;;40.55;21.83;;;5.90;99.90;;;;;;5059884;28;20044;-71
2022/12/01 01:08:40;;;;;;;54.17;27.70;;;5.90;99.90;;;;;;5069531;28;20059;-71
2022/12/01 01:11:07;;;;;;;58.53;30.65;;;5.90;99.90;;;;;;5040747;28;20036;-71
2022/12/01 01:13:34;;;;;;;59.38;30.38;;;5.90;99.90;;;;;;5052946;28;20067;-70
2022/12/01 01:16:12;;;;;;;67.00;33.85;;;6.00;99.90;;;;;;5034409;28;20052;-71
2022/12/01 01:18:38;;;;;;;52.88;27.55;;;5.90;99.90;;;;;;5054677;28;20045;-70
2022/12/01 01:21:07;;;;;;;49.25;25.90;;;5.90;99.90;;;;;;5052779;28;20052;-71
2022/12/01 01:23:33;;;;;;;58.83;30.50;;;6.00;99.90;;;;;;5063095;28;20041;-71
2022/12/01 01:26:04;;;;;;;57.53;29.33;;;5.90;99.90;;;;;;5046643;28;20403;-71
2022/12/01 01:28:31;;;;;;;67.82;34.40;;;5.90;99.90;;;;;;5046772;28;20045;-72
2022/12/01 01:30:57;;;;;;;;;;;6.00;99.90;;;;;;5065355;28;20407;-72
2022/12/01 01:33:22;;;;;;;55.60;28.25;;;5.90;99.90;;;;;;5051915;28;19924;-71
2022/12/01 01:35:48;;;;;;;47.45;25.45;;;5.90;99.90;;;;;;5051732;28;20048;-70
2022/12/01 01:38:14;;;;;;;45.03;23.25;;;5.90;99.90;;;;;;5037176;28;20033;-71
2022/12/01 01:40:44;;;;;;;41.17;23.33;;;5.90;99.90;;;;;;5054214;28;20041;-71
2022/12/01 01:43:14;;;;;;;60.60;30.00;;;5.90;99.90;;;;;;5055470;28;20410;-71
2022/12/01 01:45:40;;;;;;;49.53;25.98;;;5.90;99.90;;;;;;5050234;28;20053;-70
2022/12/01 01:48:08;;;;;;;51.33;26.90;;;5.90;99.90;;;;;;5050336;28;20045;-70
2022/12/01 01:50:34;;;;;;;43.75;23.05;;;5.90;99.90;;;;;;5054298;28;20492;-71
2022/12/01 01:53:09;;;;;;;34.15;19.10;;;5.90;99.90;;;;;;5041150;28;20094;-70
2022/12/01 01:55:35;;;;;;;44.58;22.88;;;5.90;99.90;;;;;;5068444;28;20070;-71
2022/12/01 01:58:05;;;;;;;44.47;22.05;;;5.90;99.90;;;;;;5045461;28;20502;-70
2022/12/01 02:00:31;;;;;;;55.80;27.75;;;5.90;99.90;;;;;;5066457;28;20043;-71
2022/12/01 02:02:57;;;;;;;44.20;23.35;;;5.90;99.90;;;;;;5037664;28;20049;-70
2022/12/01 02:05:26;;;;;;;57.05;30.05;;;5.90;99.90;;;;;;5066877;28;20460;-71
2022/12/01 02:07:55;;;;;;;48.30;25.77;;;5.90;99.90;;;;;;5070148;28;20098;-71
2022/12/01 02:10:28;;;;;;;46.13;24.08;;;5.90;99.90;;;;;;5050373;28;20413;-70
2022/12/01 02:13:08;;;;;;;52.28;27.40;;;5.90;99.90;;;;;;5034108;28;20044;-70
2022/12/01 02:15:43;;;;;;;40.88;22.35;;;5.90;99.90;;;;;;5049132;28;20491;-70
2022/12/01 02:18:57;;;;;;;49.85;24.35;;;5.90;99.90;;;;;;5055877;28;20041;-71
2022/12/01 02:21:26;;;;;;;44.08;23.55;;;5.90;99.90;;;;;;4983305;28;20092;-70
2022/12/01 02:24:00;;;;;;;33.88;19.38;;;5.90;99.90;;;;;;5043995;28;20168;-71
2022/12/01 02:26:45;;;;;;;34.08;18.95;;;5.90;99.90;;;;;;5060541;28;20121;-71
2022/12/01 02:29:33;;;;;;;46.88;24.40;;;5.90;99.90;;;;;;5039903;28;20036;-71
2022/12/01 02:32:02;;;;;;;;;;;5.90;99.90;;;;;;5050623;28;20498;-71
2022/12/01 02:34:39;;;;;;;30.48;17.27;;;5.80;99.90;;;;;;5037192;28;20260;-71
2022/12/01 02:37:35;;;;;;;26.88;14.77;;;5.90;99.90;;;;;;5056426;28;20037;-70
2022/12/01 02:40:08;;;;;;;26.08;14.52;;;5.90;99.90;;;;;;5062770;28;20102;-75
2022/12/01 02:42:50;;;;;;;32.35;16.40;;;5.80;99.90;;;;;;5054851;28;20096;-74
2022/12/01 02:45:27;;;;;;;32.28;18.02;;;5.90;99.90;;;;;;5050062;28;20123;-75
2022/12/01 02:47:55;;;;;;;;;;;5.90;99.90;;;;;;5061093;28;20151;-75
2022/12/01 02:50:24;;;;;;;30.20;15.45;;;5.90;99.90;;;;;;5059053;28;19921;-74
2022/12/01 02:52:51;;;;;;;28.05;14.25;;;5.90;99.90;;;;;;5044519;28;20041;-75
2022/12/01 02:55:16;;;;;;;31.52;16.80;;;5.90;99.90;;;;;;5065175;28;20047;-75
2022/12/01 02:57:42;;;;;;;28.33;14.98;;;5.90;99.90;;;;;;5040320;28;20044;-76
2022/12/01 03:00:12;;;;;;;26.52;15.45;;;5.90;99.90;;;;;;5060044;28;20404;-76
2022/12/01 03:03:34;;;;;;;27.83;15.05;;;5.90;99.90;;;;;;5042653;28;20106;-77
2022/12/01 03:06:26;;;;;;;31.02;16.17;;;5.90;99.90;;;;;;5010527;28;20061;-76
2022/12/01 03:08:55;;;;;;;26.30;13.55;;;5.90;99.90;;;;;;5012549;28;20048;-76
2022/12/01 03:11:33;;;;;;;24.48;12.80;;;5.90;99.90;;;;;;5038168;28;20069;-77
2022/12/01 03:14:20;;;;;;;24.23;12.68;;;5.90;99.90;;;;;;5054994;28;20048;-76
2022/12/01 03:16:50;;;;;;;32.33;17.42;;;5.80;99.90;;;;;;5069066;28;20131;-76
2022/12/01 03:19:23;;;;;;;29.40;14.52;;;5.90;99.90;;;;;;5051522;28;20116;-76
2022/12/01 03:21:55;;;;;;;30.20;15.80;;;5.90;99.90;;;;;;5034196;28;20036;-70
2022/12/01 03:24:25;;;;;;;24.00;12.75;;;5.80;99.90;;;;;;5059564;28;20060;-70
2022/12/01 03:26:58;;;;;;;19.27;10.30;;;5.80;99.90;;;;;;5061712;28;20083;-71
2022/12/01 03:29:31;;;;;;;16.90;9.70;;;5.80;99.90;;;;;;5061602;28;20499;-71
2022/12/01 03:32:03;;;;;;;17.20;9.70;;;5.80;99.90;;;;;;5065897;28;20041;-70
2022/12/01 03:34:52;;;;;;;17.45;9.60;;;5.80;99.90;;;;;;5061926;28;20045;-70
2022/12/01 03:37:26;;;;;;;16.15;9.30;;;5.80;99.90;;;;;;5041912;28;20524;-70
2022/12/01 03:39:56;;;;;;;16.65;9.43;;;5.80;99.90;;;;;;5055059;28;20033;-70
2022/12/01 03:42:43;;;;;;;17.20;8.73;;;5.80;99.90;;;;;;5063495;28;21270;-71
2022/12/01 03:45:36;;;;;;;17.35;9.02;;;5.80;99.90;;;;;;5057351;28;20762;-71
2022/12/01 03:48:02;;;;;;;14.35;7.45;;;5.80;99.90;;;;;;5037410;28;20041;-70
2022/12/01 03:50:52;;;;;;;14.80;8.00;;;5.80;99.90;;;;;;5067898;28;20127;-71
2022/12/01 03:53:27;;;;;;;15.27;8.63;;;5.80;99.90;;;;;;5046926;28;20048;-71
2022/12/01 03:56:01;;;;;;;24.42;12.55;;;5.80;99.90;;;;;;5056998;28;20053;-71
2022/12/01 03:58:33;;;;;;;22.40;11.45;;;5.90;99.90;;;;;;5055404;28;20396;-71
2022/12/01 04:01:03;;;;;;;24.98;11.43;;;5.80;99.90;;;;;;5057241;28;20047;-71
2022/12/01 04:03:29;;;;;;;42.78;20.25;;;5.80;99.90;;;;;;5038048;28;20060;-70
2022/12/01 04:05:56;;;;;;;29.85;15.43;;;5.80;99.90;;;;;;5029638;28;20045;-71
2022/12/01 04:08:22;;;;;;;26.92;15.40;;;5.90;99.90;;;;;;5059044;28;20048;-71
2022/12/01 04:10:48;;;;;;;27.33;14.10;;;5.90;99.90;;;;;;5055989;28;20051;-71
2022/12/01 04:13:22;;;;;;;22.10;12.05;;;5.90;99.90;;;;;;5059538;28;20032;-71
2022/12/01 04:15:49;;;;;;;20.48;11.75;;;5.90;99.90;;;;;;5050295;28;20040;-70
2022/12/01 04:18:16;;;;;;;35.75;18.52;;;5.90;99.90;;;;;;5034541;28;20040;-71
2022/12/01 04:20:44;;;;;;;32.22;17.08;;;5.90;99.90;;;;;;5053006;28;20109;-70
2022/12/01 04:23:10;;;;;;;27.83;15.15;;;5.90;99.90;;;;;;5017842;28;20060;-71
2022/12/01 04:25:35;;;;;;;34.40;17.30;;;5.90;99.90;;;;;;5067834;28;20044;-70
2022/12/01 04:28:01;;;;;;;40.72;20.20;;;5.90;99.90;;;;;;5068592;28;20064;-75
2022/12/01 04:30:27;;;;;;;33.08;17.88;;;5.90;99.90;;;;;;5066044;28;20048;-75
2022/12/01 04:32:52;;;;;;;30.58;16.02;;;5.90;99.90;;;;;;5065137;28;20057;-76
2022/12/01 04:35:18;;;;;;;25.38;13.95;;;5.90;99.90;;;;;;5034007;28;20487;-75
2022/12/01 04:37:44;;;;;;;20.98;11.50;;;5.90;99.90;;;;;;5054797;28;20040;-75
2022/12/01 04:40:10;;;;;;;16.60;9.77;;;5.90;99.90;;;;;;5052650;28;20044;-75
2022/12/01 04:42:35;;;;;;;16.83;10.13;;;5.90;99.90;;;;;;5038527;28;20403;-75
2022/12/01 04:45:01;;;;;;;13.13;7.40;;;5.90;99.90;;;;;;5055043;28;20075;-76
2022/12/01 04:47:27;;;;;;;11.25;6.57;;;5.90;99.90;;;;;;5047296;28;20095;-74
2022/12/01 04:49:53;;;;;;;9.88;5.97;;;5.90;99.90;;;;;;5035559;28;20567;-75
2022/12/01 04:52:19;;;;;;;11.95;6.65;;;5.80;99.90;;;;;;5062057;28;20075;-76
2022/12/01 04:54:44;;;;;;;11.60;7.10;;;5.80;99.90;;;;;;5030284;28;20472;-75
2022/12/01 04:57:10;;;;;;;12.48;7.38;;;5.90;99.90;;;;;;5036766;28;20062;-75
2022/12/01 04:59:36;;;;;;;11.73;6.22;;;5.80;99.90;;;;;;5052235;28;20820;-75
2022/12/01 05:02:02;;;;;;;15.10;7.82;;;5.80;99.90;;;;;;5064472;28;20124;-71
2022/12/01 05:04:30;;;;;;;16.23;8.77;;;5.80;99.90;;;;;;5062648;28;20056;-71
2022/12/01 05:06:55;;;;;;;17.55;8.63;;;5.80;99.90;;;;;;5055912;28;20098;-71
2022/12/01 05:09:21;;;;;;;16.08;8.68;;;5.80;99.90;;;;;;5067866;28;20044;-71
2022/12/01 05:11:47;;;;;;;16.27;8.27;;;5.80;99.90;;;;;;5063710;28;20045;-71
2022/12/01 05:14:12;;;;;;;14.13;8.05;;;5.70;99.90;;;;;;5057539;28;20053;-71
2022/12/01 05:16:38;;;;;;;14.70;8.25;;;5.60;99.90;;;;;;5061966;28;20040;-71
2022/12/01 05:22:03;;;;;;;15.02;8.32;;;5.40;99.90;;;;;;5040876;28;20107;-71
2022/12/01 05:24:29;;;;;;;14.55;8.30;;;5.20;99.90;;;;;;5040973;28;20519;-72
2022/12/01 05:26:55;;;;;;;14.95;8.90;;;5.10;99.90;;;;;;5039884;28;20469;-71
2022/12/01 05:29:20;;;;;;;16.92;9.07;;;5.10;99.90;;;;;;5049618;28;20057;-72
2022/12/01 05:31:46;;;;;;;15.13;8.60;;;4.90;99.90;;;;;;5054608;28;20059;-71
2022/12/01 05:34:12;;;;;;;17.88;10.32;;;4.80;99.90;;;;;;5052856;28;20050;-71
2022/12/01 05:36:37;;;;;;;20.45;11.70;;;4.70;99.90;;;;;;5027284;28;20045;-72
2022/12/01 05:39:03;;;;;;;31.48;15.10;;;4.50;99.90;;;;;;5069228;28;20079;-71
2022/12/01 05:41:29;;;;;;;37.60;17.33;;;4.50;99.90;;;;;;5052156;28;20109;-71
2022/12/01 05:43:55;;;;;;;34.97;17.20;;;4.40;99.90;;;;;;5069101;28;20053;-72
2022/12/01 05:46:20;;;;;;;34.65;17.73;;;4.30;99.90;;;;;;5041570;28;20075;-71
2022/12/01 05:48:46;;;;;;;31.35;17.35;;;4.30;99.90;;;;;;5056068;28;20059;-71
2022/12/01 05:51:14;;;;;;;31.25;16.67;;;4.20;99.90;;;;;;5066313;28;20097;-71
2022/12/01 05:53:40;;;;;;;28.00;15.07;;;4.10;99.90;;;;;;5068368;28;20546;-71
2022/12/01 05:56:07;;;;;;;24.58;13.20;;;4.00;99.90;;;;;;5068990;28;20818;-70
2022/12/01 05:58:32;;;;;;;;;;;3.90;99.90;;;;;;5065373;28;20032;-71
2022/12/01 06:00:58;;;;;;;20.73;11.23;;;3.80;99.90;;;;;;5060239;28;19927;-76
2022/12/01 06:03:24;;;;;;;20.15;10.77;;;3.80;99.90;;;;;;5029136;28;20403;-75
2022/12/01 06:05:50;;;;;;;16.23;9.65;;;3.70;99.90;;;;;;5060472;28;20446;-75
2022/12/01 06:08:16;;;;;;;16.73;9.18;;;3.60;99.90;;;;;;5059649;28;20044;-75
2022/12/01 06:10:41;;;;;;;14.75;8.75;;;3.50;99.90;;;;;;5054566;28;20060;-75
2022/12/01 06:13:07;;;;;;;17.40;9.15;;;3.40;99.90;;;;;;5059519;28;20119;-76
2022/12/01 06:15:33;;;;;;;16.27;8.65;;;3.30;99.90;;;;;;5063387;28;20040;-76
2022/12/01 06:17:59;;;;;;;15.77;8.93;;;3.20;99.90;;;;;;5061523;28;20036;-76
2022/12/01 06:20:24;;;;;;;16.75;9.15;;;3.20;99.90;;;;;;5057062;28;20037;-76
2022/12/01 06:22:50;;;;;;;17.50;9.55;;;3.10;99.90;;;;;;5059919;28;20488;-76
2022/12/01 06:25:16;;;;;;;15.90;8.75;;;3.00;99.90;;;;;;5061265;28;20480;-70
2022/12/01 06:27:41;;;;;;;16.67;8.75;;;3.00;99.90;;;;;;5036728;28;20055;-70
2022/12/01 06:30:08;;;;;;;16.13;8.80;;;2.90;99.90;;;;;;5032732;28;20049;-70
2022/12/01 06:32:34;;;;;;;16.85;8.57;;;2.90;99.90;;;;;;5055098;28;20041;-70
2022/12/01 06:34:59;;;;;;;15.70;9.57;;;2.80;99.90;;;;;;5064046;28;20056;-75
2022/12/01 06:37:26;;;;;;;16.20;9.18;;;2.80;99.90;;;;;;5044253;28;20103;-75
2022/12/01 06:39:52;;;;;;;14.38;8.07;;;2.80;99.90;;;;;;5063846;28;20037;-76
2022/12/01 06:42:18;;;;;;;11.80;6.95;;;2.70;99.90;;;;;;5056142;28;20102;-75
2022/12/01 06:44:43;;;;;;;12.07;6.18;;;2.70;99.90;;;;;;5051238;28;20115;-75
2022/12/01 06:47:09;;;;;;;11.35;6.60;;;2.70;99.90;;;;;;5055095;28;20076;-77
2022/12/01 06:49:35;;;;;;;12.90;7.22;;;2.70;99.90;;;;;;5034956;28;20045;-75
2022/12/01 06:52:01;;;;;;;11.10;6.50;;;2.70;99.90;;;;;;5049859;28;20484;-74
2022/12/01 06:54:26;;;;;;;11.95;6.10;;;2.70;99.90;;;;;;5072475;28;20535;-74
2022/12/01 06:56:52;;;;;;;10.90;6.35;;;2.60;99.90;;;;;;5039242;28;20040;-74
2022/12/01 06:59:18;;;;;;;9.43;5.45;;;2.60;99.90;;;;;;5055762;28;20079;-74
2022/12/01 07:01:44;;;;;;;10.70;5.53;;;2.60;99.90;;;;;;5072483;28;20119;-74
2022/12/01 07:04:10;;;;;;;10.65;6.22;;;2.60;99.90;;;;;;5056495;28;20091;-74
2022/12/01 07:06:36;;;;;;;9.50;5.85;;;2.60;99.90;;;;;;5072637;28;20441;-74
2022/12/01 07:09:01;;;;;;;10.80;6.72;;;2.50;99.90;;;;;;5072144;28;20041;-74
2022/12/01 07:11:28;;;;;;;10.95;6.53;;;2.40;99.90;;;;;;5055566;28;20166;-74
2022/12/01 07:13:55;;;;;;;10.75;6.15;;;2.40;99.90;;;;;;5072005;28;20083;-74
2022/12/01 07:16:21;;;;;;;8.93;5.78;;;2.30;99.90;;;;;;5073501;28;20455;-74
2022/12/01 07:18:47;;;;;;;8.10;5.40;;;2.30;99.90;;;;;;5073542;28;20047;-73
2022/12/01 07:21:13;;;;;;;8.93;6.00;;;2.20;99.90;;;;;;5055547;28;20131;-75
2022/12/01 07:23:39;;;;;;;11.48;7.75;;;2.20;99.90;;;;;;5052012;28;20514;-74
2022/12/01 07:26:16;;;;;;;10.25;6.93;;;2.10;99.90;;;;;;5051051;28;20045;-73
2022/12/01 07:28:43;;;;;;;10.10;6.70;;;2.10;99.90;;;;;;5052136;28;20496;-75
2022/12/01 07:31:15;;;;;;;8.23;5.88;;;2.10;99.90;;;;;;5052256;28;20067;-74
2022/12/01 07:33:41;;;;;;;6.00;4.65;;;2.10;99.90;;;;;;5052054;28;20504;-74
2022/12/01 07:36:08;;;;;;;6.13;4.45;;;2.00;99.90;;;;;;5052238;28;20055;-73
2022/12/01 07:38:34;;;;;;;5.95;4.25;;;2.00;99.90;;;;;;5051689;28;20119;-75
2022/12/01 07:41:05;;;;;;;7.15;4.65;;;1.90;99.90;;;;;;5035323;28;20056;-74
2022/12/01 07:43:33;;;;;;;6.75;4.63;;;1.90;99.90;;;;;;5035701;28;20053;-75
2022/12/01 07:46:15;;;;;;;5.68;4.13;;;2.00;99.90;;;;;;5051535;28;20141;-74
2022/12/01 07:48:42;;;;;;;5.07;3.72;;;2.00;99.90;;;;;;5065937;28;21375;-74
2022/12/01 07:51:10;;;;;;;4.40;3.50;;;1.90;99.90;;;;;;5051986;28;20341;-75
2022/12/01 07:53:36;;;;;;;4.68;3.58;;;1.90;99.90;;;;;;5035554;28;20373;-75
2022/12/01 07:56:04;;;;;;;5.28;3.70;;;1.90;99.90;;;;;;5052025;28;20480;-75
2022/12/01 07:58:30;;;;;;;4.15;3.13;;;1.80;99.90;;;;;;5051792;28;20055;-75
2022/12/01 08:00:56;;;;;;;;;;;1.80;99.90;;;;;;5052883;28;20044;-75
2022/12/01 08:03:22;;;;;;;4.22;3.10;;;1.80;99.90;;;;;;5052078;28;20019;-74
2022/12/01 08:05:58;;;;;;;3.13;2.60;;;1.80;99.90;;;;;;5051725;28;20084;-74
2022/12/01 08:08:24;;;;;;;4.25;2.85;;;1.80;99.90;;;;;;5034396;28;20048;-74
2022/12/01 08:10:51;;;;;;;4.35;2.85;;;1.70;99.90;;;;;;5051106;28;20056;-74
2022/12/01 08:13:17;;;;;;;4.85;3.28;;;1.80;99.90;;;;;;5034637;28;20063;-74
2022/12/01 08:15:43;;;;;;;4.67;3.60;;;1.80;99.90;;;;;;5034781;28;20483;-75
2022/12/01 08:18:08;;;;;;;4.78;3.40;;;1.80;99.90;;;;;;5017931;28;20674;-75
2022/12/01 08:20:34;;;;;;;3.83;2.75;;;1.80;99.90;;;;;;5036526;28;20090;-74
2022/12/01 08:23:00;;;;;;;4.47;3.03;;;1.80;99.90;;;;;;5071155;28;20056;-74
2022/12/01 08:25:27;;;;;;;;;;;1.80;99.90;;;;;;5037835;28;20040;-74
2022/12/01 08:27:52;;;;;;;3.53;2.72;;;1.90;99.90;;;;;;5071772;28;19961;-74
2022/12/01 08:30:18;;;;;;;3.88;2.85;;;1.90;99.90;;;;;;5054540;28;20126;-75
2022/12/01 08:32:44;;;;;;;4.00;2.90;;;1.90;99.90;;;;;;5071037;28;20497;-74
2022/12/01 08:35:10;;;;;;;4.15;2.83;;;1.90;99.90;;;;;;5054418;28;20302;-75
2022/12/01 08:37:35;;;;;;;5.38;3.55;;;1.90;99.90;;;;;;5070837;28;20449;-74
2022/12/01 08:40:01;;;;;;;4.30;3.10;;;1.90;99.90;;;;;;5071215;28;20131;-75
2022/12/01 08:42:27;;;;;;;5.50;3.50;;;2.00;99.90;;;;;;5071208;28;20408;-74
2022/12/01 08:44:52;;;;;;;5.05;3.40;;;2.10;99.90;;;;;;5054464;28;20056;-74
2022/12/01 08:47:18;;;;;;;4.85;3.35;;;2.10;99.90;;;;;;5037528;28;20044;-74
2022/12/01 08:49:44;;;;;;;5.15;3.45;;;2.10;99.90;;;;;;5071437;28;20056;-74
2022/12/01 08:52:09;;;;;;;4.15;2.80;;;2.20;99.90;;;;;;5071037;28;20551;-75
2022/12/01 08:54:35;;;;;;;4.97;2.97;;;2.20;99.90;;;;;;5054228;28;20055;-75
2022/12/01 08:57:01;;;;;;;3.42;2.40;;;2.30;99.90;;;;;;5054157;28;20036;-74
2022/12/01 08:59:26;;;;;;;4.90;3.38;;;2.30;99.90;;;;;;5070522;28;20468;-75
2022/12/01 09:01:52;;;;;;;5.00;3.22;;;2.50;99.90;;;;;;5054411;28;20100;-75
2022/12/01 09:04:20;;;;;;;4.35;2.90;;;2.50;99.90;;;;;;5070812;28;20048;-75
2022/12/01 09:06:47;;;;;;;4.72;2.90;;;2.70;99.90;;;;;;5053880;28;20132;-75
2022/12/01 09:09:25;;;;;;;4.32;3.10;;;2.80;99.90;;;;;;5053788;28;20044;-75
2022/12/01 09:11:51;;;;;;;4.22;2.72;;;2.80;99.90;;;;;;5071800;28;20076;-75
2022/12/01 09:14:18;;;;;;;5.13;3.13;;;2.90;99.90;;;;;;5070129;28;20040;-75
2022/12/01 09:16:46;;;;;;;4.82;2.63;;;3.10;99.90;;;;;;5053582;28;20063;-74
2022/12/01 09:19:12;;;;;;;3.92;2.58;;;3.10;99.90;;;;;;5071494;28;20080;-75
2022/12/01 09:21:39;;;;;;;4.38;2.50;;;3.20;99.90;;;;;;5070207;28;20123;-74
2022/12/01 09:24:06;;;;;;;4.30;2.80;;;3.30;99.90;;;;;;5069738;28;20372;-74
2022/12/01 09:26:33;;;;;;;5.07;3.05;;;3.40;99.90;;;;;;5070070;28;20468;-74
2022/12/01 09:29:01;;;;;;;;;;;3.40;99.90;;;;;;5070390;28;20052;-74
2022/12/01 09:31:27;;;;;;;5.28;3.78;;;3.60;99.90;;;;;;5053291;28;19924;-74
2022/12/01 09:33:55;;;;;;;5.82;4.00;;;3.80;99.90;;;;;;5069762;28;20127;-75
2022/12/01 09:36:20;;;;;;;5.82;4.07;;;3.80;99.90;;;;;;5052894;28;20048;-74
2022/12/01 09:38:46;;;;;;;6.55;5.00;;;4.00;99.90;;;;;;5069782;28;20047;-75
2022/12/01 09:41:24;;;;;;;7.70;4.82;;;4.00;99.90;;;;;;5069420;28;20044;-74
2022/12/01 09:43:59;;;;;;;10.02;6.78;;;4.10;99.90;;;;;;5068886;28;20060;-74
2022/12/01 09:46:32;;;;;;;11.13;7.03;;;4.20;99.90;;;;;;5069549;28;20045;-74
2022/12/01 09:49:00;;;;;;;8.85;5.38;;;4.50;99.90;;;;;;5069255;28;20052;-75
2022/12/01 09:51:28;;;;;;;8.20;5.43;;;4.50;99.90;;;;;;5069960;28;20045;-75
2022/12/01 09:53:58;;;;;;;7.85;5.20;;;4.50;99.90;;;;;;5053400;28;20049;-75
2022/12/01 09:56:29;;;;;;;7.63;5.28;;;4.50;99.90;;;;;;5053714;28;20059;-75
2022/12/01 09:58:58;;;;;;;7.35;4.85;;;4.60;99.90;;;;;;5069932;28;20074;-74
2022/12/01 10:01:36;;;;;;;7.30;4.68;;;4.80;99.90;;;;;;5069927;28;20079;-75
2022/12/01 10:04:17;;;;;;;6.45;4.32;;;4.80;99.90;;;;;;5070222;28;20056;-75
2022/12/01 10:06:50;;;;;;;7.60;5.22;;;4.90;99.90;;;;;;5070422;28;20052;-75
2022/12/01 10:09:41;;;;;;;9.23;6.07;;;5.20;99.90;;;;;;5070758;28;20045;-74
2022/12/01 10:12:15;;;;;;;10.18;6.53;;;5.20;99.90;;;;;;5070524;28;20045;-74
2022/12/01 10:14:44;;;;;;;9.93;6.43;;;5.40;99.90;;;;;;5068829;28;20056;-74
2022/12/01 10:17:34;;;;;;;11.90;7.38;;;5.30;99.90;;;;;;5069235;28;20487;-74
2022/12/01 10:20:15;;;;;;;10.25;6.63;;;5.50;99.90;;;;;;5069262;28;20049;-74
2022/12/01 10:23:06;;;;;;;8.20;5.65;;;5.60;99.90;;;;;;5069119;28;20052;-74
2022/12/01 10:25:43;;;;;;;9.43;6.47;;;5.70;99.90;;;;;;5068894;28;20163;-75
2022/12/01 10:28:24;;;;;;;10.07;6.30;;;5.70;99.90;;;;;;5052478;28;20040;-74
2022/12/01 10:30:51;;;;;;;8.73;5.70;;;5.90;99.90;;;;;;5069142;28;20044;-75
2022/12/01 10:33:49;;;;;;;7.95;5.35;;;5.80;99.90;;;;;;5069359;28;20051;-74
2022/12/01 10:36:15;;;;;;;8.30;5.60;;;6.20;99.90;;;;;;5069244;28;20066;-75
2022/12/01 10:38:41;;;;;;;8.07;4.90;;;6.20;99.90;;;;;;5069454;28;20049;-74
2022/12/01 10:41:13;;;;;;;6.85;5.10;;;6.20;99.90;;;;;;5052475;28;20036;-75
2022/12/01 10:43:43;;;;;;;11.25;6.60;;;6.40;99.90;;;;;;5068851;28;20092;-75
2022/12/01 10:46:39;;;;;;;16.98;10.07;;;6.40;99.90;;;;;;5068702;28;20045;-75
2022/12/01 10:49:10;;;;;;;16.38;9.90;;;6.50;99.90;;;;;;5052489;28;20094;-75
2022/12/01 10:51:57;;;;;;;14.73;9.27;;;6.60;99.90;;;;;;5068578;28;20062;-75
2022/12/01 10:54:37;;;;;;;11.93;7.50;;;6.50;99.90;;;;;;5052023;28;20049;-74
2022/12/01 10:57:05;;;;;;;10.13;6.50;;;6.40;99.90;;;;;;5068870;28;20074;-75
2022/12/01 10:59:54;;;;;;;10.30;6.85;;;6.40;99.90;;;;;;5069180;28;20055;-74
2022/12/01 11:02:22;;;;;;;9.45;5.68;;;6.40;99.90;;;;;;5056036;28;20048;-73
2022/12/01 11:04:53;;;;;;;11.07;7.20;;;6.50;99.90;;;;;;5055644;28;20462;-74
2022/12/01 11:07:26;;;;;;;12.75;7.65;;;6.40;99.90;;;;;;5072580;28;20041;-75
2022/12/01 11:10:18;;;;;;;25.45;14.63;;;6.60;99.90;;;;;;5072855;28;20055;-75
2022/12/01 11:12:51;;;;;;;25.48;14.90;;;6.90;99.90;;;;;;5072803;28;20114;-75
2022/12/01 11:15:27;;;;;;;24.00;14.18;;;7.40;99.90;;;;;;5073536;28;20032;-74
2022/12/01 11:18:02;;;;;;;21.23;12.73;;;7.70;99.90;;;;;;5073047;28;20040;-74
2022/12/01 11:20:35;;;;;;;20.10;12.05;;;8.00;99.90;;;;;;5073032;28;20037;-74
2022/12/01 11:23:25;;;;;;;25.05;14.73;;;8.20;99.90;;;;;;5073067;28;20130;-74
2022/12/01 11:26:15;;;;;;;26.80;15.00;;;8.40;99.90;;;;;;5072507;28;20059;-74
2022/12/01 11:28:53;;;;;;;25.00;14.75;;;8.50;99.90;;;;;;5055801;28;20152;-74
2022/12/01 11:31:21;;;;;;;21.05;12.93;;;8.30;99.90;;;;;;5072443;28;20561;-74
2022/12/01 11:33:53;;;;;;;20.25;12.27;;;8.10;99.90;;;;;;5071772;28;20080;-74
2022/12/01 11:36:28;;;;;;;19.25;11.55;;;8.00;99.90;;;;;;5071847;28;20040;-75
2022/12/01 11:38:57;;;;;;;20.50;12.52;;;8.00;99.90;;;;;;5071733;28;20147;-74
2022/12/01 11:41:39;;;;;;;19.50;12.13;;;8.20;99.90;;;;;;5071924;28;20044;-74
2022/12/01 11:44:17;;;;;;;24.35;14.98;;;8.30;99.90;;;;;;5071617;28;20103;-74
2022/12/01 11:46:43;;;;;;;21.35;13.82;;;8.60;99.90;;;;;;5071967;28;20093;-75
2022/12/01 11:49:28;;;;;;;22.55;13.20;;;8.70;99.90;;;;;;5055436;28;20032;-74
2022/12/01 11:51:53;;;;;;;31.60;16.73;;;8.60;99.90;;;;;;5071859;28;20048;-74
2022/12/01 11:54:25;;;;;;;23.95;14.90;;;8.70;99.90;;;;;;5071975;28;20048;-74
2022/12/01 11:56:52;;;;;;;23.27;13.15;;;8.80;99.90;;;;;;5054774;28;20433;-74
2022/12/01 11:59:22;;;;;;;17.77;10.68;;;9.00;99.90;;;;;;5072039;28;20118;-74
2022/12/01 12:02:17;;;;;;;17.08;10.15;;;9.10;99.90;;;;;;5071542;28;20051;-74
2022/12/01 12:05:04;;;;;;;17.95;10.65;;;9.10;99.90;;;;;;5057963;28;20040;-75
2022/12/01 12:07:48;;;;;;;17.88;11.30;;;9.10;99.90;;;;;;5072037;28;20059;-75
2022/12/01 12:10:35;;;;;;;22.88;12.77;;;8.90;99.90;;;;;;5071315;28;20503;-74
2022/12/01 12:13:14;;;;;;;19.58;12.50;;;8.60;99.90;;;;;;5071044;28;20057;-75
2022/12/01 12:15:57;;;;;;;21.75;13.13;;;8.30;99.90;;;;;;5071391;28;20120;-75
2022/12/01 12:19:00;;;;;;;24.27;14.27;;;8.00;99.90;;;;;;5071686;28;20072;-75
2022/12/01 12:21:49;;;;;;;17.38;11.18;;;7.90;99.90;;;;;;5071109;28;20175;-75
2022/12/01 12:24:30;;;;;;;15.38;9.15;;;7.90;99.90;;;;;;5071041;28;20044;-75
2022/12/01 12:27:07;;;;;;;17.42;10.23;;;7.90;99.90;;;;;;5054736;28;20052;-74
2022/12/01 12:29:47;;;;;;;25.88;15.07;;;7.90;99.90;;;;;;5070991;28;20535;-75
2022/12/01 12:32:46;;;;;;;21.65;12.73;;;7.80;99.90;;;;;;5054204;28;20048;-74
2022/12/01 12:35:40;;;;;;;18.55;11.77;;;7.80;99.90;;;;;;5070439;28;20049;-74
2022/12/01 12:38:21;;;;;;;21.27;11.93;;;7.90;99.90;;;;;;5070405;28;20044;-75
2022/12/01 12:40:46;;;;;;;22.27;12.65;;;7.90;99.90;;;;;;5053553;28;20087;-75
2022/12/01 12:43:36;;;;;;;18.75;11.82;;;7.90;99.90;;;;;;5053809;28;20079;-75
2022/12/01 12:46:12;;;;;;;20.00;12.10;;;7.90;99.90;;;;;;5053857;28;20048;-74
2022/12/01 12:48:51;;;;;;;17.45;10.90;;;7.90;99.90;;;;;;5053962;28;20093;-75
2022/12/01 12:51:24;;;;;;;30.38;18.20;;;8.10;99.90;;;;;;5070525;28;20052;-74
2022/12/01 12:53:56;;;;;;;28.63;16.35;;;8.10;99.90;;;;;;5070118;28;20095;-74
2022/12/01 12:56:24;;;;;;;28.45;17.92;;;8.10;99.90;;;;;;5053499;28;20051;-74
2022/12/01 12:59:07;;;;;;;25.92;17.05;;;8.10;99.90;;;;;;5070128;28;20032;-74
2022/12/01 13:01:39;;;;;;;23.48;15.00;;;8.00;99.90;;;;;;5065797;28;20043;-73
2022/12/01 13:04:11;;;;;;;20.17;12.93;;;8.00;99.90;;;;;;5059540;28;20048;-74
2022/12/01 13:06:46;;;;;;;23.20;14.38;;;8.10;99.90;;;;;;5069620;28;20054;-75
2022/12/01 13:09:28;;;;;;;24.00;15.07;;;8.20;99.90;;;;;;5069541;28;20492;-75